Paradise, Michigan
Current Conditions -  °F | °C
As of 4:00 PM on Friday 31 Oct 2014 (Local Time) from CYAM Reporting Station
Broken Clouds Broken Clouds  
Wind Chill: 24°   Ceiling: 3900
Heat Index: 34°   Visibility: 15mi
Dew Point: 19°   Wind: 14mph
Humidity: 56%   Direction: 360°N
Pressure: 30.29"   Gusts: 24mph
Location:  46.63°N, 85.04°W
Report Text: CYAM 312000Z 36012G21KT 15SM BKN039 01/M07 A3029 RMK SC6 SLP266
Loading
Personal Weather Stations






























Interactive Weather Map
Tropical Storm Tracking
New forecast layout! Learn more

10-Day Weather Forecast

Advertisements
Track Severe Weather on mobile